sensor_id;sensor_type;location;lat;lon;timestamp;pressure;altitude;pressure_sealevel;temperature;humidity
50364;BME280;36272;59.400;17.982;2023-02-08T00:00:49;103009.22;;;4.30;85.48
50364;BME280;36272;59.400;17.982;2023-02-08T00:05:53;103020.44;;;4.34;85.61
50364;BME280;36272;59.400;17.982;2023-02-08T00:10:55;103022.22;;;4.33;85.62
50364;BME280;36272;59.400;17.982;2023-02-08T00:15:57;103020.53;;;4.32;85.61
50364;BME280;36272;59.400;17.982;2023-02-08T00:20:58;103016.81;;;4.35;85.57
50364;BME280;36272;59.400;17.982;2023-02-08T00:26:00;103007.75;;;4.37;85.54
50364;BME280;36272;59.400;17.982;2023-02-08T00:31:04;103005.72;;;4.41;85.81
50364;BME280;36272;59.400;17.982;2023-02-08T00:36:07;102997.63;;;4.42;85.85
50364;BME280;36272;59.400;17.982;2023-02-08T00:41:09;102994.00;;;4.43;85.68
50364;BME280;36272;59.400;17.982;2023-02-08T00:46:13;102973.63;;;4.44;85.61
50364;BME280;36272;59.400;17.982;2023-02-08T00:51:14;102985.09;;;4.44;85.73
50364;BME280;36272;59.400;17.982;2023-02-08T00:56:16;102983.75;;;4.50;85.99
50364;BME280;36272;59.400;17.982;2023-02-08T01:01:18;102994.09;;;4.53;85.61
50364;BME280;36272;59.400;17.982;2023-02-08T01:06:20;103011.69;;;4.54;85.83
50364;BME280;36272;59.400;17.982;2023-02-08T01:11:24;102993.00;;;4.56;85.83
50364;BME280;36272;59.400;17.982;2023-02-08T01:16:29;102977.81;;;4.58;85.63
50364;BME280;36272;59.400;17.982;2023-02-08T01:21:36;102959.13;;;4.59;85.77
50364;BME280;36272;59.400;17.982;2023-02-08T01:26:39;102984.28;;;4.65;85.50
50364;BME280;36272;59.400;17.982;2023-02-08T01:31:41;102972.34;;;4.71;85.69
50364;BME280;36272;59.400;17.982;2023-02-08T01:36:43;102984.75;;;4.70;85.64
50364;BME280;36272;59.400;17.982;2023-02-08T01:41:45;102977.50;;;4.72;85.67
50364;BME280;36272;59.400;17.982;2023-02-08T01:46:48;102974.03;;;4.72;85.97
50364;BME280;36272;59.400;17.982;2023-02-08T01:51:56;102966.78;;;4.74;85.84
50364;BME280;36272;59.400;17.982;2023-02-08T01:56:59;102976.41;;;4.75;85.89
50364;BME280;36272;59.400;17.982;2023-02-08T02:02:02;102972.41;;;4.81;85.63
50364;BME280;36272;59.400;17.982;2023-02-08T02:07:05;102968.78;;;4.82;85.65
50364;BME280;36272;59.400;17.982;2023-02-08T02:12:08;102969.03;;;4.79;85.98
50364;BME280;36272;59.400;17.982;2023-02-08T02:17:11;102981.47;;;4.78;86.23
50364;BME280;36272;59.400;17.982;2023-02-08T02:43:45;102983.47;;;4.86;86.08
50364;BME280;36272;59.400;17.982;2023-02-08T02:54:21;102972.34;;;4.92;86.11
50364;BME280;36272;59.400;17.982;2023-02-08T02:59:25;102978.63;;;4.91;85.81
50364;BME280;36272;59.400;17.982;2023-02-08T03:20:36;102965.09;;;4.94;86.21
50364;BME280;36272;59.400;17.982;2023-02-08T03:31:04;102994.28;;;4.94;86.60
50364;BME280;36272;59.400;17.982;2023-02-08T03:36:36;102986.91;;;4.98;86.83
50364;BME280;36272;59.400;17.982;2023-02-08T03:41:43;102986.06;;;4.97;86.44
50364;BME280;36272;59.400;17.982;2023-02-08T03:46:51;102999.19;;;5.20;85.75
50364;BME280;36272;59.400;17.982;2023-02-08T03:51:57;103003.16;;;5.04;86.11
50364;BME280;36272;59.400;17.982;2023-02-08T03:57:08;103012.78;;;5.05;86.37
50364;BME280;36272;59.400;17.982;2023-02-08T04:02:14;103013.50;;;5.08;86.36
50364;BME280;36272;59.400;17.982;2023-02-08T04:07:18;103013.38;;;5.09;86.23
50364;BME280;36272;59.400;17.982;2023-02-08T04:12:20;103029.44;;;5.08;86.51
50364;BME280;36272;59.400;17.982;2023-02-08T04:17:21;103023.00;;;5.10;86.49
50364;BME280;36272;59.400;17.982;2023-02-08T04:22:23;103029.59;;;5.16;86.48
50364;BME280;36272;59.400;17.982;2023-02-08T04:27:25;103027.81;;;5.16;86.33
50364;BME280;36272;59.400;17.982;2023-02-08T04:32:27;103044.53;;;5.17;86.50
50364;BME280;36272;59.400;17.982;2023-02-08T04:37:34;103032.00;;;5.19;86.79
50364;BME280;36272;59.400;17.982;2023-02-08T04:42:36;103038.72;;;5.23;86.33
50364;BME280;36272;59.400;17.982;2023-02-08T04:47:38;103048.53;;;5.23;86.72
50364;BME280;36272;59.400;17.982;2023-02-08T04:52:39;103051.63;;;5.28;86.50
50364;BME280;36272;59.400;17.982;2023-02-08T04:57:41;103045.47;;;5.27;86.35
50364;BME280;36272;59.400;17.982;2023-02-08T05:02:43;103054.66;;;5.23;86.57
50364;BME280;36272;59.400;17.982;2023-02-08T05:07:45;103033.41;;;5.23;86.91
50364;BME280;36272;59.400;17.982;2023-02-08T05:12:47;103029.53;;;5.27;86.63
50364;BME280;36272;59.400;17.982;2023-02-08T05:17:48;103030.25;;;5.29;86.88
50364;BME280;36272;59.400;17.982;2023-02-08T05:22:50;103033.16;;;5.26;86.88
50364;BME280;36272;59.400;17.982;2023-02-08T05:27:52;103021.72;;;5.26;87.06
50364;BME280;36272;59.400;17.982;2023-02-08T05:32:53;103024.22;;;5.27;86.75
50364;BME280;36272;59.400;17.982;2023-02-08T05:37:55;103036.00;;;5.34;86.89
50364;BME280;36272;59.400;17.982;2023-02-08T05:42:57;103031.16;;;5.40;86.82
50364;BME280;36272;59.400;17.982;2023-02-08T05:47:58;103026.31;;;5.45;86.47
50364;BME280;36272;59.400;17.982;2023-02-08T05:53:00;103019.03;;;5.47;86.36
50364;BME280;36272;59.400;17.982;2023-02-08T05:58:02;103004.47;;;5.41;86.68
50364;BME280;36272;59.400;17.982;2023-02-08T06:03:04;103010.63;;;5.42;86.66
50364;BME280;36272;59.400;17.982;2023-02-08T06:08:06;102994.44;;;5.45;86.68
50364;BME280;36272;59.400;17.982;2023-02-08T06:13:08;102989.41;;;5.42;86.87
50364;BME280;36272;59.400;17.982;2023-02-08T06:18:10;102979.75;;;5.41;86.74
50364;BME280;36272;59.400;17.982;2023-02-08T06:23:12;102983.56;;;5.48;86.73
50364;BME280;36272;59.400;17.982;2023-02-08T06:28:14;103003.81;;;5.49;86.69
50364;BME280;36272;59.400;17.982;2023-02-08T06:33:16;102996.69;;;5.49;86.75
50364;BME280;36272;59.400;17.982;2023-02-08T06:38:18;102998.09;;;5.54;86.83
50364;BME280;36272;59.400;17.982;2023-02-08T06:43:20;103009.84;;;5.51;87.04
50364;BME280;36272;59.400;17.982;2023-02-08T06:48:30;102993.78;;;5.53;87.01
50364;BME280;36272;59.400;17.982;2023-02-08T06:53:32;103007.03;;;5.53;87.01
50364;BME280;36272;59.400;17.982;2023-02-08T06:58:34;103019.47;;;5.52;86.95
50364;BME280;36272;59.400;17.982;2023-02-08T07:03:36;102999.91;;;5.53;87.05
50364;BME280;36272;59.400;17.982;2023-02-08T07:08:43;103001.47;;;5.56;87.22
50364;BME280;36272;59.400;17.982;2023-02-08T07:13:49;103005.41;;;5.61;87.04
50364;BME280;36272;59.400;17.982;2023-02-08T07:18:51;103024.44;;;5.66;86.98
50364;BME280;36272;59.400;17.982;2023-02-08T07:23:54;103032.28;;;5.68;87.06
50364;BME280;36272;59.400;17.982;2023-02-08T07:29:01;103031.03;;;5.72;86.93
50364;BME280;36272;59.400;17.982;2023-02-08T07:34:04;103032.31;;;5.78;87.00
50364;BME280;36272;59.400;17.982;2023-02-08T07:39:06;103021.44;;;5.81;86.68
50364;BME280;36272;59.400;17.982;2023-02-08T07:44:07;103017.38;;;5.87;86.59
50364;BME280;36272;59.400;17.982;2023-02-08T07:49:09;103014.72;;;5.87;86.40
50364;BME280;36272;59.400;17.982;2023-02-08T07:54:20;103034.88;;;5.89;86.62
50364;BME280;36272;59.400;17.982;2023-02-08T07:59:22;103041.88;;;5.90;86.56
50364;BME280;36272;59.400;17.982;2023-02-08T08:04:27;103024.69;;;5.94;86.73
50364;BME280;36272;59.400;17.982;2023-02-08T08:09:36;103031.41;;;5.99;86.19
50364;BME280;36272;59.400;17.982;2023-02-08T08:14:44;103025.84;;;6.02;86.29
50364;BME280;36272;59.400;17.982;2023-02-08T08:19:51;103024.75;;;6.04;86.40
50364;BME280;36272;59.400;17.982;2023-02-08T08:30:44;103033.00;;;6.11;85.85
50364;BME280;36272;59.400;17.982;2023-02-08T08:35:46;103044.06;;;6.16;85.94
50364;BME280;36272;59.400;17.982;2023-02-08T08:40:52;103042.84;;;6.20;85.85
50364;BME280;36272;59.400;17.982;2023-02-08T08:46:01;103063.81;;;6.23;85.34
50364;BME280;36272;59.400;17.982;2023-02-08T08:51:05;103051.25;;;6.25;85.34
50364;BME280;36272;59.400;17.982;2023-02-08T08:56:08;103055.44;;;6.28;85.17
50364;BME280;36272;59.400;17.982;2023-02-08T09:01:11;103050.53;;;6.23;85.44
50364;BME280;36272;59.400;17.982;2023-02-08T09:06:14;103035.28;;;6.25;85.11
50364;BME280;36272;59.400;17.982;2023-02-08T09:11:20;103048.03;;;6.32;85.39
50364;BME280;36272;59.400;17.982;2023-02-08T09:16:22;103037.84;;;6.37;85.11
50364;BME280;36272;59.400;17.982;2023-02-08T09:21:27;103038.66;;;6.37;85.25
50364;BME280;36272;59.400;17.982;2023-02-08T09:26:32;103062.75;;;6.46;84.73
50364;BME280;36272;59.400;17.982;2023-02-08T09:31:42;103056.91;;;6.52;84.73
50364;BME280;36272;59.400;17.982;2023-02-08T09:36:50;103044.16;;;6.55;84.70
50364;BME280;36272;59.400;17.982;2023-02-08T09:42:24;103054.94;;;6.54;84.67
50364;BME280;36272;59.400;17.982;2023-02-08T09:47:49;103045.72;;;6.58;84.76
50364;BME280;36272;59.400;17.982;2023-02-08T09:58:02;103062.25;;;6.81;83.58
50364;BME280;36272;59.400;17.982;2023-02-08T10:09:04;103071.16;;;6.61;84.19
50364;BME280;36272;59.400;17.982;2023-02-08T10:14:11;103072.19;;;6.79;83.52
50364;BME280;36272;59.400;17.982;2023-02-08T10:35:32;103055.22;;;6.70;84.18
50364;BME280;36272;59.400;17.982;2023-02-08T10:40:39;103045.44;;;6.81;83.79
50364;BME280;36272;59.400;17.982;2023-02-08T10:45:55;103047.38;;;6.89;83.44
50364;BME280;36272;59.400;17.982;2023-02-08T10:51:00;103045.41;;;6.91;83.47
50364;BME280;36272;59.400;17.982;2023-02-08T10:56:03;103026.50;;;6.94;83.41
50364;BME280;36272;59.400;17.982;2023-02-08T11:01:07;103021.88;;;6.96;83.39
50364;BME280;36272;59.400;17.982;2023-02-08T11:06:29;103018.53;;;7.04;83.58
50364;BME280;36272;59.400;17.982;2023-02-08T11:11:37;103016.00;;;7.02;82.93
50364;BME280;36272;59.400;17.982;2023-02-08T11:16:39;103015.56;;;7.07;82.93
50364;BME280;36272;59.400;17.982;2023-02-08T11:21:49;103015.44;;;7.08;82.83
50364;BME280;36272;59.400;17.982;2023-02-08T11:26:52;103021.47;;;7.10;82.53
50364;BME280;36272;59.400;17.982;2023-02-08T11:36:56;103011.63;;;7.11;82.56
50364;BME280;36272;59.400;17.982;2023-02-08T11:41:59;103006.59;;;7.18;82.41
50364;BME280;36272;59.400;17.982;2023-02-08T11:47:05;102989.38;;;7.22;82.19
50364;BME280;36272;59.400;17.982;2023-02-08T11:52:28;102996.66;;;7.20;82.49
50364;BME280;36272;59.400;17.982;2023-02-08T11:57:54;102994.13;;;7.18;82.25
50364;BME280;36272;59.400;17.982;2023-02-08T12:02:59;102989.94;;;7.16;82.24
50364;BME280;36272;59.400;17.982;2023-02-08T12:08:17;102986.00;;;7.20;82.39
50364;BME280;36272;59.400;17.982;2023-02-08T12:18:29;102983.75;;;7.15;81.89
50364;BME280;36272;59.400;17.982;2023-02-08T12:24:11;102971.72;;;7.21;82.37
50364;BME280;36272;59.400;17.982;2023-02-08T12:34:47;102972.53;;;7.21;82.18
50364;BME280;36272;59.400;17.982;2023-02-08T12:40:32;102977.28;;;7.27;81.86
50364;BME280;36272;59.400;17.982;2023-02-08T12:57:16;102958.19;;;7.32;81.55
50364;BME280;36272;59.400;17.982;2023-02-08T13:07:45;102961.56;;;7.34;81.45
50364;BME280;36272;59.400;17.982;2023-02-08T13:18:24;102947.81;;;7.39;81.20
50364;BME280;36272;59.400;17.982;2023-02-08T13:35:12;102900.03;;;7.37;80.90
50364;BME280;36272;59.400;17.982;2023-02-08T13:40:22;102902.00;;;7.35;81.11
50364;BME280;36272;59.400;17.982;2023-02-08T13:45:37;102897.66;;;7.34;81.03
50364;BME280;36272;59.400;17.982;2023-02-08T13:51:06;102886.03;;;7.35;81.20
50364;BME280;36272;59.400;17.982;2023-02-08T13:56:46;102869.34;;;7.33;81.24
50364;BME280;36272;59.400;17.982;2023-02-08T14:07:46;102869.06;;;7.36;81.03
50364;BME280;36272;59.400;17.982;2023-02-08T14:13:04;102862.06;;;7.35;81.00
50364;BME280;36272;59.400;17.982;2023-02-08T14:18:33;102857.44;;;7.37;81.10
50364;BME280;36272;59.400;17.982;2023-02-08T14:23:43;102855.63;;;7.38;80.79
50364;BME280;36272;59.400;17.982;2023-02-08T14:28:53;102854.78;;;7.37;80.97
50364;BME280;36272;59.400;17.982;2023-02-08T14:33:57;102857.44;;;7.37;80.86
50364;BME280;36272;59.400;17.982;2023-02-08T14:39:23;102829.81;;;7.38;80.98
50364;BME280;36272;59.400;17.982;2023-02-08T14:55:15;102819.81;;;7.22;81.38
50364;BME280;36272;59.400;17.982;2023-02-08T15:00:25;102832.75;;;7.17;81.52
50364;BME280;36272;59.400;17.982;2023-02-08T15:05:36;102825.59;;;7.18;81.67
50364;BME280;36272;59.400;17.982;2023-02-08T15:10:41;102836.53;;;7.14;81.39
50364;BME280;36272;59.400;17.982;2023-02-08T15:15:48;102840.72;;;7.17;81.31
50364;BME280;36272;59.400;17.982;2023-02-08T15:21:02;102832.22;;;7.13;81.52
50364;BME280;36272;59.400;17.982;2023-02-08T15:26:18;102827.75;;;7.04;81.70
50364;BME280;36272;59.400;17.982;2023-02-08T15:31:30;102833.38;;;7.01;81.73
50364;BME280;36272;59.400;17.982;2023-02-08T15:36:35;102830.19;;;6.97;81.74
50364;BME280;36272;59.400;17.982;2023-02-08T15:41:47;102825.69;;;6.98;81.74
50364;BME280;36272;59.400;17.982;2023-02-08T15:46:50;102821.94;;;6.91;81.90
50364;BME280;36272;59.400;17.982;2023-02-08T15:51:53;102814.22;;;6.88;81.97
50364;BME280;36272;59.400;17.982;2023-02-08T15:57:04;102805.72;;;6.84;81.91
50364;BME280;36272;59.400;17.982;2023-02-08T16:02:26;102804.34;;;6.80;82.07
50364;BME280;36272;59.400;17.982;2023-02-08T16:07:37;102795.13;;;6.74;81.94
50364;BME280;36272;59.400;17.982;2023-02-08T16:12:41;102799.63;;;6.64;81.93
50364;BME280;36272;59.400;17.982;2023-02-08T16:17:50;102790.44;;;6.58;82.45
50364;BME280;36272;59.400;17.982;2023-02-08T16:22:59;102793.22;;;6.57;82.28
50364;BME280;36272;59.400;17.982;2023-02-08T16:28:04;102776.84;;;6.51;82.39
50364;BME280;36272;59.400;17.982;2023-02-08T16:33:08;102771.41;;;6.53;82.13
50364;BME280;36272;59.400;17.982;2023-02-08T16:38:35;102758.94;;;6.53;82.42
50364;BME280;36272;59.400;17.982;2023-02-08T16:43:40;102760.78;;;6.53;81.91
50364;BME280;36272;59.400;17.982;2023-02-08T16:48:54;102748.34;;;6.44;82.10
50364;BME280;36272;59.400;17.982;2023-02-08T16:54:02;102744.28;;;6.39;82.31
50364;BME280;36272;59.400;17.982;2023-02-08T16:59:34;102744.81;;;6.43;81.99
50364;BME280;36272;59.400;17.982;2023-02-08T17:04:36;102750.75;;;6.37;82.01
50364;BME280;36272;59.400;17.982;2023-02-08T17:09:37;102738.97;;;6.39;81.93
50364;BME280;36272;59.400;17.982;2023-02-08T17:14:45;102727.50;;;6.39;81.95
50364;BME280;36272;59.400;17.982;2023-02-08T17:19:47;102737.03;;;6.32;81.87
50364;BME280;36272;59.400;17.982;2023-02-08T17:24:48;102737.34;;;6.29;81.76
50364;BME280;36272;59.400;17.982;2023-02-08T17:29:53;102719.00;;;6.25;82.08
50364;BME280;36272;59.400;17.982;2023-02-08T17:34:55;102731.31;;;6.27;81.65
50364;BME280;36272;59.400;17.982;2023-02-08T17:40:06;102697.88;;;6.24;81.94
50364;BME280;36272;59.400;17.982;2023-02-08T17:45:09;102682.38;;;6.19;81.70
50364;BME280;36272;59.400;17.982;2023-02-08T17:50:12;102670.53;;;6.14;81.91
50364;BME280;36272;59.400;17.982;2023-02-08T17:55:16;102673.19;;;6.14;82.06
50364;BME280;36272;59.400;17.982;2023-02-08T18:00:24;102672.19;;;6.15;82.13
50364;BME280;36272;59.400;17.982;2023-02-08T18:05:32;102675.00;;;6.13;81.95
50364;BME280;36272;59.400;17.982;2023-02-08T18:10:40;102688.28;;;6.13;82.05
50364;BME280;36272;59.400;17.982;2023-02-08T18:15:43;102662.41;;;6.15;81.91
50364;BME280;36272;59.400;17.982;2023-02-08T18:20:45;102664.06;;;6.16;81.83
50364;BME280;36272;59.400;17.982;2023-02-08T18:25:47;102657.38;;;6.12;81.90
50364;BME280;36272;59.400;17.982;2023-02-08T18:31:03;102643.09;;;6.13;82.18
50364;BME280;36272;59.400;17.982;2023-02-08T18:36:05;102642.47;;;6.29;81.45
50364;BME280;36272;59.400;17.982;2023-02-08T18:41:08;102635.13;;;6.13;81.76
50364;BME280;36272;59.400;17.982;2023-02-08T18:46:13;102629.13;;;6.11;81.76
50364;BME280;36272;59.400;17.982;2023-02-08T18:51:16;102629.28;;;6.09;81.70
50364;BME280;36272;59.400;17.982;2023-02-08T18:56:23;102616.28;;;6.06;81.62
50364;BME280;36272;59.400;17.982;2023-02-08T19:01:25;102625.06;;;6.07;81.64
50364;BME280;36272;59.400;17.982;2023-02-08T19:06:33;102604.81;;;6.06;81.48
50364;BME280;36272;59.400;17.982;2023-02-08T19:11:38;102596.13;;;6.04;81.13
50364;BME280;36272;59.400;17.982;2023-02-08T19:16:41;102587.63;;;6.00;81.37
50364;BME280;36272;59.400;17.982;2023-02-08T19:21:46;102588.47;;;6.01;81.19
50364;BME280;36272;59.400;17.982;2023-02-08T19:26:51;102574.78;;;5.95;80.99
50364;BME280;36272;59.400;17.982;2023-02-08T19:32:02;102590.31;;;5.90;81.08
50364;BME280;36272;59.400;17.982;2023-02-08T19:37:04;102595.34;;;5.84;81.01
50364;BME280;36272;59.400;17.982;2023-02-08T19:42:06;102565.72;;;5.78;81.06
50364;BME280;36272;59.400;17.982;2023-02-08T19:47:09;102568.81;;;5.74;80.61
50364;BME280;36272;59.400;17.982;2023-02-08T19:52:11;102539.22;;;5.69;80.86
50364;BME280;36272;59.400;17.982;2023-02-08T19:57:16;102528.19;;;5.63;80.50
50364;BME280;36272;59.400;17.982;2023-02-08T21:07:51;102424.78;;;4.47;79.45
50364;BME280;36272;59.400;17.982;2023-02-08T21:18:11;102402.34;;;4.22;78.70
50364;BME280;36272;59.400;17.982;2023-02-08T21:23:19;102398.16;;;4.09;78.43
50364;BME280;36272;59.400;17.982;2023-02-08T21:33:45;102395.03;;;3.84;77.95
50364;BME280;36272;59.400;17.982;2023-02-08T21:44:00;102376.91;;;3.70;77.81
50364;BME280;36272;59.400;17.982;2023-02-08T21:49:14;102371.31;;;3.63;77.49
50364;BME280;36272;59.400;17.982;2023-02-08T21:59:47;102348.28;;;3.44;77.62
50364;BME280;36272;59.400;17.982;2023-02-08T22:10:08;102324.44;;;3.24;77.30
50364;BME280;36272;59.400;17.982;2023-02-08T22:15:12;102318.97;;;3.16;77.28
50364;BME280;36272;59.400;17.982;2023-02-08T22:35:48;102284.22;;;2.90;75.88
50364;BME280;36272;59.400;17.982;2023-02-08T22:56:24;102266.91;;;2.76;75.22
50364;BME280;36272;59.400;17.982;2023-02-08T23:01:29;102244.34;;;2.72;74.96
50364;BME280;36272;59.400;17.982;2023-02-08T23:06:30;102245.44;;;2.69;74.56
50364;BME280;36272;59.400;17.982;2023-02-08T23:11:33;102214.84;;;2.66;74.18
50364;BME280;36272;59.400;17.982;2023-02-08T23:21:46;102190.88;;;2.58;73.46
50364;BME280;36272;59.400;17.982;2023-02-08T23:26:51;102190.88;;;2.58;72.80
50364;BME280;36272;59.400;17.982;2023-02-08T23:31:57;102171.56;;;2.58;72.39
50364;BME280;36272;59.400;17.982;2023-02-08T23:36:59;102175.03;;;2.58;72.02
50364;BME280;36272;59.400;17.982;2023-02-08T23:42:01;102161.97;;;2.57;71.95
50364;BME280;36272;59.400;17.982;2023-02-08T23:47:03;102169.19;;;2.55;71.57
50364;BME280;36272;59.400;17.982;2023-02-08T23:57:15;102146.13;;;2.57;71.46
